RYR2QB LFOB-EGCC
Flight info
| Callsign | RYR2QB |
|---|---|
| Flight time | 0h 54m |
| Altitude | 36000 |
| Route | VESAN DCT RATUK DCT SOVAT L613 SANDY UN57 WELIN T420 ELVOS |
| Aircraft | B38M/M-SDE1FGHILORVWXY/HB1 |
Departure
| Time | 2026-05-04 15:26 |
|---|---|
| Airport | Beauvais-Tillé airport (LFOB) |
Arrival
| Time | 2026-05-04 16:20 |
|---|---|
| Airport | Manchester Airport (EGCC) |
| Time | Latitude | Longitude | Altitude | Speed | Heading |
|---|---|---|---|---|---|
| 2026-05-04 15:11 | 49.45822 | 2.11097 | 349 ft | 0 kts | 34° |
| 2026-05-04 15:19 | 49.45790 | 2.11072 | 348 ft | 4 kts | 1° |
| 2026-05-04 15:19 | 49.45767 | 2.11083 | 348 ft | 4 kts | 315° |
| 2026-05-04 15:19 | 49.45761 | 2.11093 | 357 ft | 0 kts | 304° |
| 2026-05-04 15:23 | 49.45782 | 2.11046 | 353 ft | 12 kts | 304° |
| 2026-05-04 15:23 | 49.45777 | 2.10965 | 346 ft | 9 kts | 214° |
| 2026-05-04 15:23 | 49.45682 | 2.10892 | 343 ft | 22 kts | 211° |
| 2026-05-04 15:24 | 49.45724 | 2.10625 | 333 ft | 18 kts | 305° |
| 2026-05-04 15:24 | 49.45831 | 2.10396 | 333 ft | 3 kts | 233° |
| 2026-05-04 15:25 | 49.45826 | 2.10393 | 332 ft | 0 kts | 187° |
| 2026-05-04 15:25 | 49.45822 | 2.10401 | 332 ft | 2 kts | 126° |
| 2026-05-04 15:25 | 49.45725 | 2.10625 | 333 ft | 66 kts | 123° |
| 2026-05-04 15:26 | 49.44707 | 2.12918 | 1074 ft | 156 kts | 126° |
| 2026-05-04 15:26 | 49.44160 | 2.14411 | 1982 ft | 167 kts | 105° |
| 2026-05-04 15:26 | 49.45117 | 2.17653 | 3153 ft | 208 kts | 17° |
| 2026-05-04 15:27 | 49.46579 | 2.17298 | 3829 ft | 228 kts | 331° |
| 2026-05-04 15:27 | 49.49442 | 2.14510 | 5612 ft | 256 kts | 330° |
| 2026-05-04 15:28 | 49.52862 | 2.12515 | 7548 ft | 268 kts | 358° |
| 2026-05-04 15:28 | 49.54757 | 2.12420 | 8506 ft | 277 kts | 356° |
| 2026-05-04 15:28 | 49.58681 | 2.11881 | 10374 ft | 292 kts | 356° |
| 2026-05-04 15:29 | 49.60784 | 2.11615 | 10932 ft | 311 kts | 356° |
| 2026-05-04 15:30 | 49.69972 | 2.10525 | 14060 ft | 343 kts | 356° |
| 2026-05-04 15:30 | 49.77243 | 2.09681 | 16403 ft | 355 kts | 356° |
| 2026-05-04 15:31 | 49.82199 | 2.09107 | 17856 ft | 364 kts | 356° |
| 2026-05-04 15:31 | 49.84742 | 2.08809 | 18575 ft | 367 kts | 356° |
| 2026-05-04 15:32 | 49.92540 | 2.07899 | 20345 ft | 380 kts | 355° |
| 2026-05-04 15:32 | 49.97858 | 2.07278 | 21512 ft | 388 kts | 355° |
| 2026-05-04 15:33 | 50.03286 | 2.06643 | 22651 ft | 395 kts | 355° |
| 2026-05-04 15:34 | 50.11613 | 2.05665 | 24140 ft | 407 kts | 355° |
| 2026-05-04 15:34 | 50.14447 | 2.05332 | 24627 ft | 410 kts | 355° |
| 2026-05-04 15:34 | 50.20187 | 2.04654 | 25542 ft | 416 kts | 355° |
| 2026-05-04 15:35 | 50.25980 | 2.03971 | 26466 ft | 421 kts | 355° |
| 2026-05-04 15:35 | 50.28910 | 2.03624 | 26927 ft | 424 kts | 355° |
| 2026-05-04 15:35 | 50.31865 | 2.03274 | 27349 ft | 428 kts | 355° |
| 2026-05-04 15:36 | 50.37629 | 2.01203 | 28158 ft | 428 kts | 328° |
| 2026-05-04 15:36 | 50.40046 | 1.98489 | 28522 ft | 429 kts | 318° |
| 2026-05-04 15:36 | 50.42352 | 1.95486 | 28875 ft | 433 kts | 317° |
| 2026-05-04 15:37 | 50.44646 | 1.92440 | 29286 ft | 435 kts | 317° |
| 2026-05-04 15:37 | 50.46949 | 1.89339 | 29664 ft | 437 kts | 317° |
| 2026-05-04 15:37 | 50.49230 | 1.86238 | 30027 ft | 440 kts | 316° |
| 2026-05-04 15:37 | 50.51545 | 1.83076 | 30374 ft | 442 kts | 316° |
| 2026-05-04 15:38 | 50.53869 | 1.79895 | 30725 ft | 444 kts | 316° |
| 2026-05-04 15:38 | 50.56190 | 1.76712 | 31034 ft | 446 kts | 316° |
| 2026-05-04 15:38 | 50.58567 | 1.73449 | 31352 ft | 449 kts | 316° |
| 2026-05-04 15:38 | 50.60896 | 1.70246 | 31674 ft | 451 kts | 316° |
| 2026-05-04 15:39 | 50.63262 | 1.66988 | 31970 ft | 453 kts | 315° |
| 2026-05-04 15:39 | 50.65625 | 1.63731 | 32269 ft | 455 kts | 315° |
| 2026-05-04 15:39 | 50.70400 | 1.57125 | 32899 ft | 458 kts | 315° |
| 2026-05-04 15:40 | 50.72019 | 1.54883 | 33118 ft | 459 kts | 315° |
| 2026-05-04 15:40 | 50.74387 | 1.51598 | 33520 ft | 458 kts | 315° |
| 2026-05-04 15:40 | 50.76779 | 1.48274 | 33947 ft | 458 kts | 315° |
| 2026-05-04 15:40 | 50.79199 | 1.44912 | 34267 ft | 457 kts | 315° |
| 2026-05-04 15:41 | 50.81555 | 1.41633 | 34577 ft | 457 kts | 315° |
| 2026-05-04 15:41 | 50.83929 | 1.38325 | 34890 ft | 457 kts | 315° |
| 2026-05-04 15:41 | 50.86318 | 1.34991 | 35134 ft | 458 kts | 316° |
| 2026-05-04 15:41 | 50.88708 | 1.31649 | 35444 ft | 458 kts | 316° |
| 2026-05-04 15:42 | 50.91093 | 1.28311 | 35776 ft | 457 kts | 316° |
| 2026-05-04 15:42 | 50.93476 | 1.24970 | 35990 ft | 458 kts | 316° |
| 2026-05-04 15:42 | 50.95863 | 1.21619 | 35997 ft | 457 kts | 316° |
| 2026-05-04 15:43 | 51.00603 | 1.14951 | 35994 ft | 455 kts | 316° |
| 2026-05-04 15:43 | 51.05334 | 1.08277 | 35992 ft | 455 kts | 315° |
| 2026-05-04 15:44 | 51.09865 | 1.01278 | 35988 ft | 454 kts | 313° |
| 2026-05-04 15:44 | 51.14367 | 0.94296 | 36018 ft | 454 kts | 313° |
| 2026-05-04 15:45 | 51.18900 | 0.87261 | 35991 ft | 455 kts | 313° |
| 2026-05-04 15:45 | 51.23422 | 0.80222 | 35992 ft | 455 kts | 313° |
| 2026-05-04 15:46 | 51.27952 | 0.73152 | 35990 ft | 455 kts | 313° |
| 2026-05-04 15:46 | 51.32474 | 0.66072 | 35995 ft | 455 kts | 313° |
| 2026-05-04 15:47 | 51.36979 | 0.59000 | 36004 ft | 454 kts | 313° |
| 2026-05-04 15:47 | 51.41490 | 0.51896 | 36012 ft | 454 kts | 313° |
| 2026-05-04 15:48 | 51.45986 | 0.44797 | 36016 ft | 454 kts | 313° |
| 2026-05-04 15:48 | 51.52743 | 0.34086 | 36012 ft | 455 kts | 313° |
| 2026-05-04 15:49 | 51.57222 | 0.26961 | 36017 ft | 455 kts | 313° |
| 2026-05-04 15:49 | 51.61705 | 0.19812 | 36015 ft | 448 kts | 313° |
| 2026-05-04 15:50 | 51.66041 | 0.12792 | 36021 ft | 438 kts | 312° |
| 2026-05-04 15:50 | 51.68120 | 0.09379 | 36011 ft | 424 kts | 312° |
| 2026-05-04 15:50 | 51.70150 | 0.06046 | 36010 ft | 408 kts | 312° |
| 2026-05-04 15:51 | 51.74080 | -0.00415 | 36068 ft | 407 kts | 312° |
| 2026-05-04 15:51 | 51.76054 | -0.03665 | 35626 ft | 406 kts | 312° |
| 2026-05-04 15:51 | 51.78044 | -0.06950 | 34793 ft | 414 kts | 312° |
| 2026-05-04 15:52 | 51.80081 | -0.10313 | 34085 ft | 420 kts | 311° |
| 2026-05-04 15:52 | 51.82114 | -0.13674 | 33627 ft | 416 kts | 312° |
| 2026-05-04 15:52 | 51.84119 | -0.16994 | 33228 ft | 410 kts | 312° |
| 2026-05-04 15:52 | 51.86105 | -0.20288 | 32733 ft | 408 kts | 311° |
| 2026-05-04 15:53 | 51.88080 | -0.23568 | 32297 ft | 404 kts | 311° |
| 2026-05-04 15:53 | 51.90027 | -0.26806 | 31845 ft | 401 kts | 311° |
| 2026-05-04 15:53 | 51.91964 | -0.30030 | 31415 ft | 398 kts | 311° |
| 2026-05-04 15:53 | 51.93886 | -0.33235 | 30991 ft | 395 kts | 311° |
| 2026-05-04 15:54 | 51.95797 | -0.36424 | 30573 ft | 392 kts | 311° |
| 2026-05-04 15:54 | 51.97689 | -0.39587 | 30163 ft | 390 kts | 310° |
| 2026-05-04 15:54 | 51.99567 | -0.42729 | 29694 ft | 387 kts | 310° |
| 2026-05-04 15:54 | 52.01433 | -0.45855 | 29250 ft | 384 kts | 310° |
| 2026-05-04 15:55 | 52.03286 | -0.48964 | 28811 ft | 381 kts | 310° |
| 2026-05-04 15:55 | 52.05120 | -0.52045 | 28385 ft | 378 kts | 311° |
| 2026-05-04 15:55 | 52.06933 | -0.55093 | 28030 ft | 373 kts | 311° |
| 2026-05-04 15:55 | 52.08724 | -0.58111 | 27613 ft | 371 kts | 311° |
| 2026-05-04 15:56 | 52.10507 | -0.61117 | 27220 ft | 368 kts | 311° |
| 2026-05-04 15:56 | 52.12257 | -0.64071 | 26834 ft | 366 kts | 311° |
| 2026-05-04 15:56 | 52.14038 | -0.67082 | 26445 ft | 363 kts | 311° |
| 2026-05-04 15:56 | 52.15787 | -0.70042 | 26066 ft | 361 kts | 311° |
| 2026-05-04 15:57 | 52.17500 | -0.72945 | 25693 ft | 359 kts | 311° |
| 2026-05-04 15:57 | 52.19224 | -0.75869 | 25327 ft | 357 kts | 311° |
| 2026-05-04 15:57 | 52.20941 | -0.78783 | 24960 ft | 354 kts | 311° |
| 2026-05-04 15:57 | 52.22645 | -0.81679 | 24606 ft | 352 kts | 311° |
| 2026-05-04 15:58 | 52.24343 | -0.84534 | 24275 ft | 351 kts | 314° |
| 2026-05-04 15:58 | 52.26325 | -0.86824 | 23942 ft | 351 kts | 328° |
| 2026-05-04 15:58 | 52.28417 | -0.88879 | 23552 ft | 351 kts | 326° |
| 2026-05-04 15:58 | 52.30487 | -0.90946 | 23163 ft | 348 kts | 326° |
| 2026-05-04 15:59 | 52.32557 | -0.93010 | 22751 ft | 347 kts | 326° |
| 2026-05-04 15:59 | 52.34611 | -0.95058 | 22354 ft | 345 kts | 326° |
| 2026-05-04 15:59 | 52.36660 | -0.97102 | 21969 ft | 343 kts | 326° |
| 2026-05-04 15:59 | 52.38692 | -0.99131 | 21567 ft | 341 kts | 326° |
| 2026-05-04 16:00 | 52.40719 | -1.01156 | 21151 ft | 341 kts | 327° |
| 2026-05-04 16:00 | 52.42743 | -1.03183 | 20761 ft | 340 kts | 327° |
| 2026-05-04 16:00 | 52.44755 | -1.05198 | 20383 ft | 338 kts | 327° |
| 2026-05-04 16:00 | 52.46749 | -1.07198 | 20029 ft | 337 kts | 327° |
| 2026-05-04 16:01 | 52.48724 | -1.09181 | 19677 ft | 335 kts | 327° |
| 2026-05-04 16:01 | 52.50706 | -1.11173 | 19326 ft | 333 kts | 327° |
| 2026-05-04 16:01 | 52.52682 | -1.13162 | 18981 ft | 332 kts | 327° |
| 2026-05-04 16:01 | 52.54636 | -1.15129 | 18681 ft | 329 kts | 327° |
| 2026-05-04 16:02 | 52.56583 | -1.17091 | 18334 ft | 327 kts | 327° |
| 2026-05-04 16:02 | 52.58516 | -1.19041 | 17956 ft | 326 kts | 327° |
| 2026-05-04 16:02 | 52.62344 | -1.22907 | 17233 ft | 321 kts | 327° |
| 2026-05-04 16:03 | 52.64242 | -1.24829 | 16891 ft | 319 kts | 327° |
| 2026-05-04 16:03 | 52.66104 | -1.26715 | 16544 ft | 317 kts | 327° |
| 2026-05-04 16:03 | 52.67966 | -1.28602 | 16209 ft | 315 kts | 327° |
| 2026-05-04 16:03 | 52.69849 | -1.30513 | 15874 ft | 313 kts | 327° |
| 2026-05-04 16:04 | 52.71691 | -1.32386 | 15575 ft | 311 kts | 327° |
| 2026-05-04 16:04 | 52.75180 | -1.36384 | 14944 ft | 306 kts | 317° |
| 2026-05-04 16:04 | 52.76800 | -1.38656 | 14614 ft | 304 kts | 319° |
| 2026-05-04 16:05 | 52.78417 | -1.40882 | 14316 ft | 302 kts | 319° |
| 2026-05-04 16:05 | 52.80032 | -1.43085 | 13997 ft | 300 kts | 319° |
| 2026-05-04 16:05 | 52.83245 | -1.47437 | 13316 ft | 296 kts | 319° |
| 2026-05-04 16:06 | 52.84842 | -1.49595 | 12966 ft | 295 kts | 319° |
| 2026-05-04 16:06 | 52.89032 | -1.55262 | 12126 ft | 290 kts | 320° |
| 2026-05-04 16:07 | 52.91144 | -1.58051 | 12047 ft | 291 kts | 326° |
| 2026-05-04 16:07 | 52.96844 | -1.61631 | 12050 ft | 293 kts | 340° |
| 2026-05-04 16:08 | 52.98783 | -1.62711 | 12056 ft | 293 kts | 340° |
| 2026-05-04 16:08 | 53.04548 | -1.65926 | 12059 ft | 292 kts | 340° |
| 2026-05-04 16:09 | 53.08400 | -1.68077 | 12060 ft | 292 kts | 340° |
| 2026-05-04 16:09 | 53.12235 | -1.70222 | 12063 ft | 292 kts | 340° |
| 2026-05-04 16:10 | 53.16059 | -1.72362 | 11622 ft | 290 kts | 340° |
| 2026-05-04 16:11 | 53.21731 | -1.75548 | 10674 ft | 285 kts | 340° |
| 2026-05-04 16:11 | 53.23606 | -1.76605 | 10419 ft | 281 kts | 340° |
| 2026-05-04 16:12 | 53.29017 | -1.79694 | 9615 ft | 272 kts | 340° |
| 2026-05-04 16:12 | 53.34350 | -1.82759 | 8632 ft | 268 kts | 340° |
| 2026-05-04 16:13 | 53.37871 | -1.84783 | 8000 ft | 266 kts | 340° |
| 2026-05-04 16:13 | 53.41358 | -1.86787 | 7379 ft | 264 kts | 340° |
| 2026-05-04 16:14 | 53.44820 | -1.88780 | 6741 ft | 264 kts | 340° |
| 2026-05-04 16:14 | 53.48301 | -1.91788 | 4512 ft | 302 kts | 308° |
| 2026-05-04 16:15 | 53.48839 | -2.01361 | 3664 ft | 252 kts | 256° |
| 2026-05-04 16:16 | 53.46846 | -2.05437 | 3593 ft | 214 kts | 213° |
| 2026-05-04 16:16 | 53.43961 | -2.09877 | 2821 ft | 173 kts | 230° |
| 2026-05-04 16:17 | 53.42447 | -2.12940 | 2310 ft | 169 kts | 231° |
| 2026-05-04 16:18 | 53.40260 | -2.17443 | 1609 ft | 163 kts | 232° |
| 2026-05-04 16:18 | 53.39562 | -2.18883 | 1391 ft | 156 kts | 231° |
| 2026-05-04 16:19 | 53.37568 | -2.22977 | 746 ft | 148 kts | 230° |
| 2026-05-04 16:19 | 53.36281 | -2.25609 | 362 ft | 145 kts | 231° |
| 2026-05-04 16:20 | 53.34977 | -2.28383 | 236 ft | 31 kts | 250° |
| 2026-05-04 16:20 | 53.34952 | -2.28712 | 233 ft | 15 kts | 300° |
| 2026-05-04 16:21 | 53.35217 | -2.28340 | 234 ft | 3 kts | 51° |
| 2026-05-04 16:22 | 53.35306 | -2.28169 | 236 ft | 16 kts | 45° |
| 2026-05-04 16:22 | 53.35583 | -2.27720 | 243 ft | 15 kts | 44° |
| 2026-05-04 16:23 | 53.35610 | -2.27676 | 246 ft | 0 kts | 44° |
| 2026-05-04 16:24 | 53.35679 | -2.27552 | 250 ft | 17 kts | 52° |
| 2026-05-04 16:25 | 53.35839 | -2.27222 | 258 ft | 11 kts | 27° |
| 2026-05-04 16:26 | 53.35915 | -2.27115 | 258 ft | 0 kts | 64° |